Time;durP1;ratioP1;P1;durP2;ratioP2;P2;SDS_P1;SDS_P2;PMS_P1;PMS_P2;Temp;Humidity;BMP_temperature;BMP_pressure;BME280_temperature;BME280_humidity;BME280_pressure;Samples;Min_cycle;Max_cycle;Signal;HPM_P1;HPM_P2
2021/12/21 00:01:26;;;;;;;10.87;10.57;;;-2.60;99.90;;;;;;5157898;27;20257;-80
2021/12/21 00:03:54;;;;;;;10.73;10.43;;;-2.60;99.90;;;;;;5147319;27;20305;-80
2021/12/21 00:06:21;;;;;;;11.07;10.70;;;-2.60;99.90;;;;;;5146231;27;20235;-80
2021/12/21 00:08:49;;;;;;;10.57;10.27;;;-2.60;99.90;;;;;;5146818;27;20236;-80
2021/12/21 00:11:19;;;;;;;11.07;10.70;;;-2.60;99.90;;;;;;5152519;27;20261;-81
2021/12/21 00:13:58;;;;;;;11.30;10.90;;;-2.70;99.90;;;;;;5157730;27;20253;-82
2021/12/21 00:19:25;;;;;;;10.90;10.60;;;-2.80;99.90;;;;;;5166953;27;20233;-80
2021/12/21 00:21:59;;;;;;;11.00;10.70;;;-2.80;99.90;;;;;;5166253;27;20232;-80
2021/12/21 00:24:32;;;;;;;11.00;10.70;;;-2.80;99.90;;;;;;5167521;27;20245;-80
2021/12/21 00:27:07;;;;;;;11.17;10.77;;;-2.80;99.90;;;;;;5167691;27;20312;-80
2021/12/21 00:29:35;;;;;;;11.30;10.90;;;-2.80;99.90;;;;;;5166906;27;20305;-80
2021/12/21 00:32:03;;;;;;;11.20;10.80;;;-2.90;99.90;;;;;;5167601;27;20232;-80
2021/12/21 00:34:31;;;;;;;11.37;10.97;;;-2.80;99.90;;;;;;5161432;27;20256;-80
2021/12/21 00:36:59;;;;;;;11.10;10.80;;;-2.80;99.90;;;;;;5158857;27;20223;-81
2021/12/21 00:39:28;;;;;;;11.10;10.73;;;-2.80;99.90;;;;;;5172904;27;20220;-81
2021/12/21 00:41:55;;;;;;;11.00;10.70;;;-2.80;99.90;;;;;;5177839;27;20223;-81
2021/12/21 00:44:24;;;;;;;10.80;10.50;;;-2.80;99.90;;;;;;5176765;27;20223;-80
2021/12/21 00:46:52;;;;;;;10.97;10.67;;;-2.80;99.90;;;;;;5174596;27;20231;-80
2021/12/21 00:49:21;;;;;;;11.07;10.77;;;-2.90;99.90;;;;;;5193732;22;20272;-78
2021/12/21 00:51:49;;;;;;;10.90;10.60;;;-2.90;99.90;;;;;;5155844;27;20250;-78
2021/12/21 00:54:18;;;;;;;11.00;10.70;;;-2.80;99.90;;;;;;5158634;27;20228;-79
2021/12/21 00:56:46;;;;;;;11.33;10.93;;;-2.90;99.90;;;;;;5142470;27;20212;-79
2021/12/21 00:59:14;;;;;;;11.40;11.00;;;-2.90;99.90;;;;;;5126869;27;20232;-79
2021/12/21 01:01:43;;;;;;;10.70;10.40;;;-2.90;99.90;;;;;;5121342;28;20232;-78
2021/12/21 01:04:20;;;;;;;10.83;10.53;;;-2.90;99.90;;;;;;5121712;28;20233;-79
2021/12/21 01:07:00;;;;;;;11.10;10.80;;;-2.90;99.90;;;;;;5122266;28;20268;-79
2021/12/21 01:10:00;;;;;;;10.87;10.57;;;-3.00;99.90;;;;;;5130793;27;20590;-78
2021/12/21 01:12:41;;;;;;;11.10;10.80;;;-3.00;99.90;;;;;;5101598;28;20223;-80
2021/12/21 01:15:19;;;;;;;11.00;10.70;;;-3.00;99.90;;;;;;5101852;28;20219;-79
2021/12/21 01:17:54;;;;;;;10.87;10.57;;;-3.10;99.90;;;;;;5101958;28;20237;-79
2021/12/21 01:20:31;;;;;;;10.63;10.33;;;-3.10;99.90;;;;;;5102243;28;20233;-80
2021/12/21 01:23:25;;;;;;;11.07;10.77;;;-3.10;99.90;;;;;;5101787;28;20300;-79
2021/12/21 01:26:00;;;;;;;10.87;10.57;;;-3.20;99.90;;;;;;5101318;28;20307;-79
2021/12/21 01:28:36;;;;;;;11.00;10.70;;;-3.20;99.90;;;;;;5120845;27;20318;-79
2021/12/21 01:31:17;;;;;;;11.07;10.77;;;-3.30;99.90;;;;;;5134372;27;20232;-78
2021/12/21 01:33:58;;;;;;;10.70;10.40;;;-3.30;99.90;;;;;;5142281;27;20267;-79
2021/12/21 01:36:35;;;;;;;10.63;10.33;;;-3.30;99.90;;;;;;5143184;27;20250;-79
2021/12/21 01:39:11;;;;;;;10.17;9.87;;;-3.30;99.90;;;;;;5142879;27;20289;-79
2021/12/21 01:41:51;;;;;;;10.50;10.20;;;-3.30;99.90;;;;;;5143419;27;20220;-79
2021/12/21 01:44:35;;;;;;;10.47;10.17;;;-3.30;99.90;;;;;;5143392;27;20228;-79
2021/12/21 01:49:50;;;;;;;10.70;10.40;;;-3.30;99.90;;;;;;5143887;27;20234;-79
2021/12/21 01:52:21;;;;;;;10.90;10.60;;;-3.30;99.90;;;;;;5143905;27;20235;-79
2021/12/21 01:54:50;;;;;;;10.83;10.53;;;-3.30;99.90;;;;;;5144401;27;20241;-79
2021/12/21 01:57:19;;;;;;;11.03;10.73;;;-3.40;99.90;;;;;;5149941;27;20232;-78
2021/12/21 01:59:48;;;;;;;10.80;10.50;;;-3.50;99.90;;;;;;5156700;27;20249;-78
2021/12/21 02:02:20;;;;;;;10.83;10.53;;;-3.50;99.90;;;;;;5157957;27;20220;-78
2021/12/21 02:04:50;;;;;;;10.50;10.20;;;-3.50;99.90;;;;;;5157230;27;20220;-77
2021/12/21 02:07:18;;;;;;;10.40;10.10;;;-3.50;99.90;;;;;;5147229;27;20293;-79
2021/12/21 02:09:45;;;;;;;10.70;10.40;;;-3.50;99.90;;;;;;5141661;27;20232;-79
2021/12/21 02:12:17;;;;;;;10.90;10.60;;;-3.50;99.90;;;;;;5133647;27;20227;-78
2021/12/21 02:14:53;;;;;;;10.63;10.33;;;-3.40;99.90;;;;;;5122832;27;20251;-78
2021/12/21 02:17:47;;;;;;;10.93;10.63;;;-3.50;99.90;;;;;;5120075;28;20216;-78
2021/12/21 02:20:23;;;;;;;10.47;10.17;;;-3.50;99.90;;;;;;5120237;27;20240;-78
2021/12/21 02:22:59;;;;;;;10.50;10.20;;;-3.50;99.90;;;;;;5120031;28;20227;-79
2021/12/21 02:25:58;;;;;;;10.80;10.50;;;-3.50;99.90;;;;;;5120134;27;20228;-79
2021/12/21 02:28:46;;;;;;;10.67;10.37;;;-3.50;99.90;;;;;;5120316;27;20223;-78
2021/12/21 02:31:16;;;;;;;11.00;10.70;;;-3.50;99.90;;;;;;5120488;28;20285;-78
2021/12/21 02:33:47;;;;;;;10.73;10.43;;;-3.60;99.90;;;;;;5120972;28;20244;-78
2021/12/21 02:36:17;;;;;;;10.80;10.50;;;-3.60;99.90;;;;;;5120873;27;20244;-79
2021/12/21 02:38:44;;;;;;;10.77;10.47;;;-3.70;99.90;;;;;;5137031;27;20237;-78
2021/12/21 02:41:12;;;;;;;10.73;10.43;;;-3.70;99.90;;;;;;5140186;28;20236;-78
2021/12/21 02:43:39;;;;;;;10.73;10.43;;;-3.70;99.90;;;;;;5140722;27;20216;-79
2021/12/21 02:46:07;;;;;;;10.70;10.40;;;-3.70;99.90;;;;;;5144135;27;20291;-79
2021/12/21 02:48:35;;;;;;;10.97;10.67;;;-3.80;99.90;;;;;;5144134;27;20224;-78
2021/12/21 02:51:04;;;;;;;10.20;9.90;;;-3.80;99.90;;;;;;5144103;27;20197;-78
2021/12/21 02:53:33;;;;;;;10.60;10.30;;;-3.80;99.90;;;;;;5144856;27;20216;-78
2021/12/21 02:56:01;;;;;;;10.70;10.40;;;-3.80;99.90;;;;;;5143587;27;20221;-78
2021/12/21 02:58:29;;;;;;;10.50;10.20;;;-3.80;99.90;;;;;;5142998;27;20224;-78
2021/12/21 03:00:57;;;;;;;10.60;10.30;;;-3.80;99.90;;;;;;5143433;27;20205;-77
2021/12/21 03:03:26;;;;;;;10.80;10.50;;;-3.70;99.90;;;;;;5144189;27;20214;-78
2021/12/21 03:05:57;;;;;;;10.97;10.67;;;-3.80;99.90;;;;;;5143295;27;20303;-78
2021/12/21 03:08:35;;;;;;;10.50;10.20;;;-3.80;99.90;;;;;;5143135;27;20219;-77
2021/12/21 03:11:12;;;;;;;10.80;10.50;;;-3.80;99.90;;;;;;5142235;27;20215;-78
2021/12/21 03:16:22;;;;;;;10.60;10.30;;;-3.80;99.90;;;;;;5137092;27;20232;-79
2021/12/21 03:18:50;;;;;;;10.43;10.13;;;-3.80;99.90;;;;;;5125797;27;20240;-78
2021/12/21 03:21:18;;;;;;;10.80;10.50;;;-3.80;99.90;;;;;;5127272;27;20232;-78
2021/12/21 03:23:46;;;;;;;10.50;10.20;;;-3.80;99.90;;;;;;5125851;28;20263;-78
2021/12/21 03:26:15;;;;;;;10.27;9.97;;;-3.80;99.90;;;;;;5123220;28;20233;-79
2021/12/21 03:28:42;;;;;;;10.40;10.10;;;-3.90;99.90;;;;;;5122752;27;20225;-78
2021/12/21 03:31:11;;;;;;;10.10;9.80;;;-3.90;99.90;;;;;;5122626;27;20229;-79
2021/12/21 03:33:39;;;;;;;10.40;10.10;;;-3.90;99.90;;;;;;5122922;28;20235;-78
2021/12/21 03:36:07;;;;;;;10.60;10.30;;;-3.90;99.90;;;;;;5122729;28;20290;-79
2021/12/21 03:38:36;;;;;;;10.60;10.30;;;-3.90;99.90;;;;;;5122833;27;21069;-80
2021/12/21 03:41:08;;;;;;;10.50;10.20;;;-3.90;99.90;;;;;;5132727;28;20241;-80
2021/12/21 03:43:37;;;;;;;10.30;10.00;;;-4.00;99.90;;;;;;5129229;28;20238;-79
2021/12/21 03:46:09;;;;;;;10.33;10.03;;;-4.00;99.90;;;;;;5126464;28;20225;-79
2021/12/21 03:48:40;;;;;;;10.33;10.03;;;-4.10;99.90;;;;;;5127641;28;20240;-79
2021/12/21 03:51:08;;;;;;;10.30;10.00;;;-4.10;99.90;;;;;;5128815;28;20217;-79
2021/12/21 03:53:36;;;;;;;10.57;10.27;;;-4.10;99.90;;;;;;5131988;28;20228;-79
2021/12/21 03:56:22;;;;;;;10.60;10.30;;;-4.20;99.90;;;;;;5129675;28;20230;-79
2021/12/21 03:58:52;;;;;;;10.53;10.23;;;-4.20;99.90;;;;;;5126921;28;20238;-80
2021/12/21 04:01:20;;;;;;;10.17;9.87;;;-4.20;99.90;;;;;;5125434;28;20216;-79
2021/12/21 04:03:48;;;;;;;10.83;10.53;;;-4.20;99.90;;;;;;5125696;28;20227;-80
2021/12/21 04:06:16;;;;;;;10.83;10.53;;;-4.20;99.90;;;;;;5125907;28;21050;-79
2021/12/21 04:08:43;;;;;;;10.60;10.30;;;-4.20;99.90;;;;;;5124401;27;20254;-78
2021/12/21 04:11:11;;;;;;;10.70;10.40;;;-4.20;99.90;;;;;;5124676;27;20229;-79
2021/12/21 04:13:39;;;;;;;10.30;10.00;;;-4.20;99.90;;;;;;5124960;28;20271;-79
2021/12/21 04:16:08;;;;;;;10.37;10.07;;;-4.20;99.90;;;;;;5124464;27;20242;-79
2021/12/21 04:18:38;;;;;;;10.57;10.27;;;-4.20;99.90;;;;;;5124519;27;21195;-79
2021/12/21 04:21:09;;;;;;;10.20;9.90;;;-4.20;99.90;;;;;;5124501;28;20228;-79
2021/12/21 04:23:37;;;;;;;10.10;9.80;;;-4.20;99.90;;;;;;5125288;28;20229;-80
2021/12/21 04:26:05;;;;;;;10.27;9.97;;;-4.20;99.90;;;;;;5125386;27;20232;-80
2021/12/21 04:28:32;;;;;;;10.70;10.40;;;-4.20;99.90;;;;;;5126938;27;20246;-79
2021/12/21 04:31:01;;;;;;;10.50;10.20;;;-4.20;99.90;;;;;;5128994;28;20228;-79
2021/12/21 04:33:32;;;;;;;10.00;9.70;;;-4.20;99.90;;;;;;5131685;28;20242;-81
2021/12/21 04:36:00;;;;;;;10.20;9.90;;;-4.20;99.90;;;;;;5131662;28;20230;-79
2021/12/21 04:38:32;;;;;;;10.67;10.37;;;-4.30;99.90;;;;;;5128948;27;20301;-79
2021/12/21 04:41:07;;;;;;;10.27;9.97;;;-4.30;99.90;;;;;;5128736;28;20239;-79
2021/12/21 04:43:35;;;;;;;10.37;10.07;;;-4.30;99.90;;;;;;5128465;28;20286;-79
2021/12/21 04:46:03;;;;;;;9.90;9.60;;;-4.30;99.90;;;;;;5123453;28;20236;-78
2021/12/21 04:48:32;;;;;;;10.33;10.03;;;-4.40;99.90;;;;;;5121776;27;20244;-78
2021/12/21 04:51:00;;;;;;;10.40;10.10;;;-4.40;99.90;;;;;;5122310;28;20235;-78
2021/12/21 04:53:28;;;;;;;10.13;9.83;;;-4.40;99.90;;;;;;5121278;28;20270;-79
2021/12/21 04:55:55;;;;;;;10.30;10.00;;;-4.50;99.90;;;;;;5120990;28;20236;-78
2021/12/21 04:58:23;;;;;;;10.17;9.87;;;-4.50;99.90;;;;;;5121906;27;20267;-78
2021/12/21 05:00:52;;;;;;;10.60;10.30;;;-4.50;99.90;;;;;;5121580;28;20223;-78
2021/12/21 05:03:20;;;;;;;10.40;10.10;;;-4.50;99.90;;;;;;5120894;28;20267;-78
2021/12/21 05:05:49;;;;;;;10.67;10.37;;;-4.50;99.90;;;;;;5120891;28;20289;-78
2021/12/21 05:08:22;;;;;;;10.13;9.83;;;-4.50;99.90;;;;;;5120379;27;20266;-78
2021/12/21 05:10:53;;;;;;;10.23;9.93;;;-4.50;99.90;;;;;;5121360;28;20231;-78
2021/12/21 05:13:28;;;;;;;10.37;10.07;;;-4.60;99.90;;;;;;5120955;27;20228;-78
2021/12/21 05:15:56;;;;;;;10.03;9.73;;;-4.60;99.90;;;;;;5120523;28;20230;-78
2021/12/21 05:18:24;;;;;;;10.17;9.87;;;-4.50;99.90;;;;;;5120219;27;20232;-78
2021/12/21 05:20:55;;;;;;;10.40;10.10;;;-4.50;99.90;;;;;;5121024;28;20231;-79
2021/12/21 05:23:23;;;;;;;10.30;10.00;;;-4.60;99.90;;;;;;5121138;28;20223;-78
2021/12/21 05:25:50;;;;;;;10.10;9.80;;;-4.60;99.90;;;;;;5120151;28;20305;-78
2021/12/21 05:28:18;;;;;;;9.63;9.33;;;-4.60;99.90;;;;;;5119831;27;20232;-78
2021/12/21 05:30:47;;;;;;;10.30;10.00;;;-4.60;99.90;;;;;;5120579;28;20232;-78
2021/12/21 05:33:15;;;;;;;10.03;9.73;;;-4.60;99.90;;;;;;5120588;27;20225;-78
2021/12/21 05:35:44;;;;;;;10.30;10.00;;;-4.60;99.90;;;;;;5119866;28;20288;-77
2021/12/21 05:38:18;;;;;;;10.17;9.87;;;-4.60;99.90;;;;;;5120654;27;20378;-78
2021/12/21 05:40:46;;;;;;;10.23;9.93;;;-4.60;99.90;;;;;;5120588;28;20259;-78
2021/12/21 05:43:14;;;;;;;10.00;9.70;;;-4.60;99.90;;;;;;5120597;28;20295;-79
2021/12/21 05:45:42;;;;;;;10.67;10.37;;;-4.60;99.90;;;;;;5121652;28;20323;-79
2021/12/21 05:48:10;;;;;;;10.80;10.50;;;-4.60;99.90;;;;;;5122740;28;20231;-79
2021/12/21 05:50:38;;;;;;;10.70;10.40;;;-4.60;99.90;;;;;;5126214;28;20285;-78
2021/12/21 05:53:06;;;;;;;10.53;10.23;;;-4.50;99.90;;;;;;5122039;28;20254;-78
2021/12/21 05:55:35;;;;;;;9.97;9.67;;;-4.50;99.90;;;;;;5121550;27;20227;-79
2021/12/21 05:58:04;;;;;;;10.40;10.10;;;-4.50;99.90;;;;;;5120483;28;20258;-78
2021/12/21 06:00:35;;;;;;;10.63;10.33;;;-4.60;99.90;;;;;;5120627;27;20241;-78
2021/12/21 06:03:03;;;;;;;10.33;10.03;;;-4.60;99.90;;;;;;5119971;28;20277;-78
2021/12/21 06:05:31;;;;;;;10.70;10.40;;;-4.60;99.90;;;;;;5120774;27;20226;-78
2021/12/21 06:07:58;;;;;;;10.67;10.37;;;-4.60;99.90;;;;;;5119988;28;20239;-78
2021/12/21 06:10:33;;;;;;;10.40;10.10;;;-4.70;99.90;;;;;;5121172;28;20285;-81
2021/12/21 06:13:29;;;;;;;10.80;10.50;;;-4.70;99.90;;;;;;5119945;27;20227;-79
2021/12/21 06:16:22;;;;;;;9.90;9.60;;;-4.70;99.90;;;;;;5120027;27;20238;-79
2021/12/21 06:27:04;;;;;;;10.30;10.00;;;-4.70;99.90;;;;;;5123418;27;20232;-80
2021/12/21 06:29:34;;;;;;;9.93;9.63;;;-4.70;99.90;;;;;;5123638;27;20239;-79
2021/12/21 06:32:02;;;;;;;10.13;9.83;;;-4.70;99.90;;;;;;5124694;28;20212;-79
2021/12/21 06:34:31;;;;;;;10.40;10.10;;;-4.70;99.90;;;;;;5123262;27;20234;-79
2021/12/21 06:36:59;;;;;;;10.30;10.00;;;-4.70;99.90;;;;;;5135168;27;20234;-78
2021/12/21 06:39:28;;;;;;;10.13;9.83;;;-4.70;99.90;;;;;;5143522;27;20293;-79
2021/12/21 06:41:57;;;;;;;10.53;10.23;;;-4.70;99.90;;;;;;5143655;27;20222;-78
2021/12/21 06:44:25;;;;;;;10.57;10.27;;;-4.70;99.90;;;;;;5143286;27;20233;-79
2021/12/21 06:47:09;;;;;;;10.13;9.83;;;-4.70;99.90;;;;;;5143782;27;20235;-79
2021/12/21 06:52:23;;;;;;;10.90;10.60;;;-4.70;99.90;;;;;;5123309;28;20204;-81
2021/12/21 06:54:51;;;;;;;11.43;11.03;;;-4.70;99.90;;;;;;5130003;28;20227;-80
2021/12/21 06:57:18;;;;;;;11.20;10.80;;;-4.80;99.90;;;;;;5134959;27;20246;-80
2021/12/21 06:59:47;;;;;;;11.47;11.07;;;-4.80;99.90;;;;;;5116023;28;20310;-80
2021/12/21 07:02:17;;;;;;;11.00;10.60;;;-4.80;99.90;;;;;;5110110;28;20221;-81
2021/12/21 07:04:45;;;;;;;11.33;10.93;;;-4.70;99.90;;;;;;5109750;28;20241;-80
2021/12/21 07:07:16;;;;;;;11.13;10.73;;;-4.70;99.90;;;;;;5109694;28;20233;-80
2021/12/21 07:09:47;;;;;;;11.80;11.40;;;-4.70;99.90;;;;;;5108043;28;20395;-81
2021/12/21 07:12:34;;;;;;;11.10;10.70;;;-4.70;99.90;;;;;;5111689;28;20249;-82
2021/12/21 07:18:13;;;;;;;11.30;10.90;;;-4.50;99.90;;;;;;5100115;28;20288;-82
2021/12/21 07:20:41;;;;;;;10.93;10.60;;;-4.50;99.90;;;;;;5111407;28;20246;-81
2021/12/21 07:23:09;;;;;;;10.73;10.43;;;-4.40;99.90;;;;;;5106595;28;20265;-81
2021/12/21 07:25:37;;;;;;;11.10;10.70;;;-4.40;99.90;;;;;;5111414;27;20239;-82
2021/12/21 07:28:05;;;;;;;11.30;10.90;;;-4.40;99.90;;;;;;5119260;27;20240;-81
2021/12/21 07:30:33;;;;;;;11.20;10.80;;;-4.40;99.90;;;;;;5119638;27;20227;-82
2021/12/21 07:33:02;;;;;;;11.30;10.90;;;-4.40;99.90;;;;;;5120443;27;20226;-80
2021/12/21 07:35:29;;;;;;;10.77;10.47;;;-4.40;99.90;;;;;;5118188;27;20217;-82
2021/12/21 07:37:57;;;;;;;11.40;11.00;;;-4.40;99.90;;;;;;5109962;28;20247;-83
2021/12/21 07:40:25;;;;;;;11.00;10.70;;;-4.40;99.90;;;;;;5108207;27;20237;-81
2021/12/21 07:42:53;;;;;;;11.30;10.90;;;-4.40;99.90;;;;;;5106721;28;20217;-82
2021/12/21 07:45:21;;;;;;;10.73;10.43;;;-4.40;99.90;;;;;;5105941;28;20232;-83
2021/12/21 07:47:49;;;;;;;11.80;11.40;;;-4.30;99.90;;;;;;5105271;28;20233;-82
2021/12/21 07:50:20;;;;;;;11.83;11.43;;;-4.30;99.90;;;;;;5139230;27;20235;-83
2021/12/21 07:52:50;;;;;;;11.67;11.27;;;-4.30;99.90;;;;;;5144311;27;20208;-82
2021/12/21 07:55:19;;;;;;;10.70;10.40;;;-4.30;99.90;;;;;;5146818;27;20289;-81
2021/12/21 07:57:46;;;;;;;10.87;10.57;;;-4.30;99.90;;;;;;5145695;27;20235;-83
2021/12/21 08:00:16;;;;;;;11.70;11.30;;;-4.20;99.90;;;;;;5145903;27;20236;-82
2021/12/21 08:02:44;;;;;;;11.80;11.40;;;-4.20;99.90;;;;;;5148964;27;20259;-82
2021/12/21 08:05:13;;;;;;;10.90;10.60;;;-4.20;99.90;;;;;;5149435;27;20228;-81
2021/12/21 08:07:49;;;;;;;10.90;10.60;;;-4.20;99.90;;;;;;5135975;27;20305;-82
2021/12/21 08:10:25;;;;;;;10.50;10.20;;;-4.20;99.90;;;;;;5158184;27;20232;-82
2021/12/21 08:12:53;;;;;;;10.53;10.23;;;-4.20;99.90;;;;;;5174863;27;20227;-83
2021/12/21 08:15:21;;;;;;;10.80;10.50;;;-4.20;99.90;;;;;;5167990;27;20294;-83
2021/12/21 08:17:49;;;;;;;10.93;10.63;;;-4.20;99.90;;;;;;5154624;27;20231;-84
2021/12/21 08:20:18;;;;;;;11.23;10.83;;;-4.10;99.90;;;;;;5160489;27;20224;-81
2021/12/21 08:22:47;;;;;;;11.57;11.17;;;-4.10;99.90;;;;;;5167994;27;20227;-82
2021/12/21 08:25:14;;;;;;;11.50;11.10;;;-4.10;99.90;;;;;;5162289;27;20335;-80
2021/12/21 08:27:42;;;;;;;11.50;11.10;;;-3.90;99.90;;;;;;5167232;27;20709;-85
2021/12/21 08:30:12;;;;;;;11.70;11.30;;;-3.80;99.90;;;;;;5167389;27;20219;-83
2021/12/21 08:32:40;;;;;;;10.70;10.40;;;-3.70;99.90;;;;;;5165215;27;20208;-82
2021/12/21 08:35:08;;;;;;;10.90;10.60;;;-3.60;99.90;;;;;;5168941;27;20238;-81
2021/12/21 08:37:36;;;;;;;10.70;10.40;;;-3.50;99.90;;;;;;5174300;27;20215;-81
2021/12/21 08:40:10;;;;;;;10.60;10.30;;;-3.30;99.90;;;;;;5171895;27;20274;-80
2021/12/21 08:42:39;;;;;;;10.30;10.00;;;-3.20;99.90;;;;;;5165799;27;20231;-80
2021/12/21 08:45:08;;;;;;;10.90;10.60;;;-3.00;99.90;;;;;;5156920;27;20235;-81
2021/12/21 08:47:37;;;;;;;10.07;9.77;;;-2.90;99.90;;;;;;5158446;27;20239;-83
2021/12/21 08:50:07;;;;;;;10.93;10.63;;;-2.70;99.90;;;;;;5149226;27;20258;-83
2021/12/21 08:52:36;;;;;;;11.13;10.73;;;-2.60;99.90;;;;;;5146632;27;20270;-83
2021/12/21 08:55:09;;;;;;;10.77;10.47;;;-2.60;99.90;;;;;;5146030;27;20228;-86
2021/12/21 08:57:37;;;;;;;10.50;10.20;;;-2.50;99.90;;;;;;5145570;27;20796;-85
2021/12/21 09:00:09;;;;;;;10.50;10.20;;;-2.40;99.90;;;;;;5144146;27;20293;-85
2021/12/21 09:02:37;;;;;;;10.50;10.20;;;-2.40;99.90;;;;;;5144436;27;20788;-85
2021/12/21 09:05:11;;;;;;;10.30;10.00;;;-2.30;99.90;;;;;;5144086;27;20232;-84
2021/12/21 09:07:41;;;;;;;10.00;9.70;;;-2.10;99.90;;;;;;5143011;27;20260;-84
2021/12/21 09:10:13;;;;;;;10.30;10.00;;;-1.90;99.90;;;;;;5143162;27;20302;-86
2021/12/21 09:12:41;;;;;;;10.17;9.87;;;-1.70;99.90;;;;;;5143815;27;20224;-85
2021/12/21 09:15:11;;;;;;;9.83;9.53;;;-1.40;99.90;;;;;;5153490;27;20322;-85
2021/12/21 09:17:40;;;;;;;10.27;9.97;;;-1.30;99.90;;;;;;5156257;27;20228;-85
2021/12/21 09:20:10;;;;;;;9.90;9.60;;;-1.10;99.90;;;;;;5166340;27;20226;-85
2021/12/21 09:22:38;;;;;;;9.60;9.30;;;-0.90;99.90;;;;;;5167704;27;20256;-85
2021/12/21 09:25:06;;;;;;;10.00;9.70;;;-0.80;99.90;;;;;;5165798;27;20221;-85
2021/12/21 09:27:36;;;;;;;10.20;9.90;;;-0.50;99.90;;;;;;5166276;27;20230;-85
2021/12/21 09:30:04;;;;;;;10.10;9.80;;;-0.40;99.90;;;;;;5164882;27;20255;-85
2021/12/21 09:32:32;;;;;;;10.13;9.83;;;-0.30;99.90;;;;;;5164711;27;20223;-85
2021/12/21 09:35:01;;;;;;;10.00;9.70;;;-0.10;99.90;;;;;;5163852;27;20230;-85
2021/12/21 09:37:29;;;;;;;9.80;9.50;;;0.10;99.90;;;;;;5164818;27;20228;-85
2021/12/21 09:39:58;;;;;;;9.70;9.40;;;0.40;99.90;;;;;;5164862;27;20232;-85
2021/12/21 09:42:28;;;;;;;9.50;9.20;;;0.60;99.90;;;;;;5173474;27;20219;-84
2021/12/21 09:45:00;;;;;;;9.53;9.23;;;0.80;99.90;;;;;;5178401;27;20215;-86
2021/12/21 09:47:28;;;;;;;9.60;9.30;;;1.00;99.90;;;;;;5178343;27;20254;-86
2021/12/21 09:49:57;;;;;;;9.57;9.27;;;1.20;99.90;;;;;;5172064;27;20265;-86
2021/12/21 09:52:29;;;;;;;9.47;9.17;;;1.40;99.90;;;;;;5170637;27;20231;-85
2021/12/21 09:54:58;;;;;;;9.40;9.10;;;1.60;99.90;;;;;;5175183;27;20233;-86
2021/12/21 09:57:26;;;;;;;9.10;8.90;;;1.90;99.90;;;;;;5168978;27;20232;-85
2021/12/21 09:59:56;;;;;;;9.23;8.93;;;2.00;99.90;;;;;;5166987;27;20245;-85
2021/12/21 10:02:26;;;;;;;9.00;8.80;;;2.20;99.90;;;;;;5175285;27;20228;-85
2021/12/21 10:04:59;;;;;;;8.80;8.60;;;2.40;99.90;;;;;;5169531;27;20531;-85
2021/12/21 10:07:28;;;;;;;8.87;8.67;;;2.50;99.90;;;;;;5180499;27;20221;-85
2021/12/21 10:10:08;;;;;;;8.77;8.57;;;2.60;99.90;;;;;;5180696;27;20248;-86
2021/12/21 10:12:40;;;;;;;8.67;8.47;;;2.70;99.90;;;;;;5181171;27;20223;-85
2021/12/21 10:15:14;;;;;;;9.10;8.90;;;2.80;99.90;;;;;;5178715;27;20250;-85
2021/12/21 10:17:50;;;;;;;9.00;8.80;;;3.00;99.90;;;;;;5174838;27;20230;-85
2021/12/21 10:20:33;;;;;;;9.50;9.20;;;3.10;99.90;;;;;;5174966;27;20227;-86
2021/12/21 10:23:02;;;;;;;8.90;8.70;;;3.20;99.90;;;;;;5174550;27;20219;-86
2021/12/21 10:25:29;;;;;;;8.83;8.63;;;3.30;99.90;;;;;;5173951;27;20227;-86
2021/12/21 10:27:57;;;;;;;9.40;9.10;;;3.40;99.90;;;;;;5175928;27;20211;-84
2021/12/21 10:30:26;;;;;;;9.60;9.30;;;3.30;99.90;;;;;;5179476;27;20227;-86
2021/12/21 10:32:56;;;;;;;9.50;9.20;;;3.40;99.90;;;;;;5180662;27;20219;-83
2021/12/21 10:35:32;;;;;;;9.40;9.10;;;3.70;99.90;;;;;;5179371;27;20199;-84
2021/12/21 10:38:03;;;;;;;9.47;9.17;;;3.80;99.90;;;;;;5182056;27;20256;-83
2021/12/21 10:40:31;;;;;;;9.57;9.27;;;3.80;99.90;;;;;;5181051;27;20263;-82
2021/12/21 10:43:01;;;;;;;9.40;9.10;;;4.00;99.90;;;;;;5181412;27;20207;-83
2021/12/21 10:45:33;;;;;;;9.33;9.03;;;4.00;99.90;;;;;;5180627;27;20213;-84
2021/12/21 10:48:04;;;;;;;9.10;8.90;;;4.00;99.90;;;;;;5180196;27;20227;-83
2021/12/21 10:50:33;;;;;;;9.10;8.87;;;4.10;99.90;;;;;;5180120;27;20257;-83
2021/12/21 10:53:04;;;;;;;8.87;8.67;;;4.20;99.90;;;;;;5180771;27;20203;-83
2021/12/21 10:55:35;;;;;;;8.90;8.70;;;4.30;99.90;;;;;;5179524;27;20219;-83
2021/12/21 10:58:12;;;;;;;9.30;9.00;;;4.40;99.90;;;;;;5180596;27;20231;-83
2021/12/21 11:00:46;;;;;;;9.07;8.87;;;4.60;99.90;;;;;;5180346;27;20219;-84
2021/12/21 11:03:18;;;;;;;9.20;8.90;;;4.60;99.90;;;;;;5178103;27;20227;-85
2021/12/21 11:05:47;;;;;;;9.60;9.30;;;4.60;99.90;;;;;;5178826;27;20255;-84
2021/12/21 11:08:27;;;;;;;9.50;9.20;;;4.60;99.90;;;;;;5179454;27;20228;-84
2021/12/21 11:10:58;;;;;;;9.67;9.37;;;4.60;99.90;;;;;;5175908;27;20232;-84
2021/12/21 11:13:26;;;;;;;9.50;9.20;;;4.70;99.90;;;;;;5167632;27;20223;-84
2021/12/21 11:15:57;;;;;;;9.30;9.00;;;4.60;99.90;;;;;;5165990;27;20367;-84
2021/12/21 11:18:27;;;;;;;9.00;8.80;;;4.70;99.90;;;;;;5165014;27;20239;-83
2021/12/21 11:20:57;;;;;;;8.73;8.53;;;4.90;99.90;;;;;;5164527;27;20260;-84
2021/12/21 11:23:26;;;;;;;8.83;8.63;;;5.20;99.90;;;;;;5164276;27;20230;-84
2021/12/21 11:25:56;;;;;;;8.87;8.67;;;5.40;99.90;;;;;;5164192;27;20231;-84
2021/12/21 11:28:29;;;;;;;9.40;9.10;;;5.40;99.90;;;;;;5165364;27;20234;-84
2021/12/21 11:31:03;;;;;;;9.30;9.00;;;5.50;99.90;;;;;;5165341;27;20216;-83
2021/12/21 11:33:36;;;;;;;9.30;9.00;;;5.40;99.90;;;;;;5164101;27;20227;-84
2021/12/21 11:38:50;;;;;;;9.77;9.47;;;5.60;99.90;;;;;;5163984;27;20223;-84
2021/12/21 11:41:18;;;;;;;9.60;9.30;;;5.80;99.90;;;;;;5163788;27;20231;-84
2021/12/21 11:43:57;;;;;;;9.70;9.40;;;6.00;99.90;;;;;;5164398;27;20280;-84
2021/12/21 11:46:35;;;;;;;9.70;9.40;;;6.20;99.90;;;;;;5164468;27;20235;-83
2021/12/21 11:49:13;;;;;;;9.93;9.63;;;6.40;99.90;;;;;;5163205;27;20238;-83
2021/12/21 11:51:41;;;;;;;10.00;9.70;;;6.60;99.90;;;;;;5164156;27;20291;-83
2021/12/21 11:54:29;;;;;;;9.83;9.53;;;6.70;99.90;;;;;;5163519;27;20227;-84
2021/12/21 11:57:02;;;;;;;10.13;9.83;;;6.90;99.90;;;;;;5163620;27;20330;-84
2021/12/21 11:59:30;;;;;;;10.23;9.93;;;7.10;99.90;;;;;;5163936;27;20250;-84
2021/12/21 12:02:01;;;;;;;10.10;9.80;;;7.10;99.90;;;;;;5163350;27;20239;-85
2021/12/21 12:04:29;;;;;;;10.43;10.13;;;7.40;99.90;;;;;;5162944;27;20219;-83
2021/12/21 12:06:58;;;;;;;10.10;9.80;;;7.60;99.90;;;;;;5163480;27;20273;-83
2021/12/21 12:09:28;;;;;;;10.30;10.00;;;7.80;99.90;;;;;;5163402;27;20268;-84
2021/12/21 12:12:07;;;;;;;10.20;9.90;;;8.00;99.90;;;;;;5163317;27;20281;-84
2021/12/21 12:14:37;;;;;;;10.20;9.90;;;8.00;99.90;;;;;;5163687;27;20224;-84
2021/12/21 12:17:14;;;;;;;10.47;10.17;;;8.00;99.90;;;;;;5162124;27;20234;-83
2021/12/21 12:19:43;;;;;;;10.10;9.80;;;8.20;99.90;;;;;;5163582;27;20333;-84
2021/12/21 12:22:15;;;;;;;9.90;9.60;;;8.40;99.90;;;;;;5163733;27;20314;-84
2021/12/21 12:24:47;;;;;;;10.00;9.70;;;8.40;99.90;;;;;;5164794;27;20235;-83
2021/12/21 12:27:20;;;;;;;9.80;9.50;;;8.60;99.90;;;;;;5164386;27;20232;-83
2021/12/21 12:29:51;;;;;;;10.03;9.73;;;8.70;99.90;;;;;;5164676;27;20231;-83
2021/12/21 12:32:33;;;;;;;9.80;9.50;;;8.20;99.90;;;;;;5167856;27;20220;-83
2021/12/21 12:35:07;;;;;;;10.10;9.80;;;8.10;99.90;;;;;;5167051;27;20227;-83
2021/12/21 12:37:48;;;;;;;9.90;9.60;;;7.80;99.90;;;;;;5173353;27;20219;-83
2021/12/21 12:40:18;;;;;;;10.10;9.80;;;7.60;99.90;;;;;;5165312;27;20243;-83
2021/12/21 12:42:59;;;;;;;10.10;9.80;;;7.70;99.90;;;;;;5164528;27;20227;-83
2021/12/21 12:45:36;;;;;;;10.00;9.70;;;8.00;99.90;;;;;;5171685;27;20211;-83
2021/12/21 12:48:18;;;;;;;10.00;9.70;;;8.20;99.90;;;;;;5177558;27;20290;-83
2021/12/21 12:50:46;;;;;;;10.20;9.90;;;8.50;99.90;;;;;;5219026;22;20243;-80
2021/12/21 12:53:15;;;;;;;10.00;9.70;;;8.20;99.90;;;;;;5140677;27;20232;-79
2021/12/21 12:55:50;;;;;;;9.80;9.50;;;8.10;99.90;;;;;;5141103;27;20223;-82
2021/12/21 12:58:21;;;;;;;10.20;9.90;;;7.90;99.90;;;;;;5143324;27;20226;-80
2021/12/21 13:00:58;;;;;;;9.90;9.60;;;7.80;99.90;;;;;;5122866;27;20239;-78
2021/12/21 13:03:37;;;;;;;10.00;9.70;;;7.80;99.90;;;;;;5120787;27;20277;-79
2021/12/21 13:06:11;;;;;;;10.10;9.80;;;7.70;99.90;;;;;;5120989;28;20216;-80
2021/12/21 13:08:40;;;;;;;10.40;10.10;;;7.80;99.90;;;;;;5121231;28;20228;-80
2021/12/21 13:11:08;;;;;;;10.10;9.80;;;7.90;99.90;;;;;;5120192;28;20228;-80
2021/12/21 13:13:39;;;;;;;9.90;9.60;;;8.00;99.90;;;;;;5120259;28;20761;-80
2021/12/21 13:16:09;;;;;;;10.07;9.77;;;7.90;99.90;;;;;;5118150;28;20339;-80
2021/12/21 13:18:46;;;;;;;10.13;9.83;;;7.50;99.90;;;;;;5118918;27;20264;-80
2021/12/21 13:21:25;;;;;;;10.00;9.70;;;7.40;99.90;;;;;;5118692;28;20255;-80